sensor_id;sensor_type;location;lat;lon;timestamp;pressure;altitude;pressure_sealevel;temperature;humidity
85683;BME280;76253;52.232;5.176;2024-02-15T00:02:09;101625.66;;;10.83;94.96
85683;BME280;76253;52.232;5.176;2024-02-15T00:04:36;101628.28;;;10.83;95.10
85683;BME280;76253;52.232;5.176;2024-02-15T00:07:02;101631.97;;;10.81;94.90
85683;BME280;76253;52.232;5.176;2024-02-15T00:09:27;101632.81;;;10.81;95.33
85683;BME280;76253;52.232;5.176;2024-02-15T00:11:53;101634.50;;;10.82;95.44
85683;BME280;76253;52.232;5.176;2024-02-15T00:14:19;101631.03;;;10.82;95.19
85683;BME280;76253;52.232;5.176;2024-02-15T00:16:44;101631.13;;;10.80;95.42
85683;BME280;76253;52.232;5.176;2024-02-15T00:19:11;101629.34;;;10.81;95.32
85683;BME280;76253;52.232;5.176;2024-02-15T00:21:36;101631.97;;;10.81;95.24
85683;BME280;76253;52.232;5.176;2024-02-15T00:24:02;101631.03;;;10.82;95.30
85683;BME280;76253;52.232;5.176;2024-02-15T00:26:28;101623.56;;;10.76;95.51
85683;BME280;76253;52.232;5.176;2024-02-15T00:28:53;101627.53;;;10.81;95.40
85683;BME280;76253;52.232;5.176;2024-02-15T00:31:23;101625.75;;;10.82;95.74
85683;BME280;76253;52.232;5.176;2024-02-15T00:33:50;101622.06;;;10.85;95.37
85683;BME280;76253;52.232;5.176;2024-02-15T00:36:16;101622.06;;;10.85;95.67
85683;BME280;76253;52.232;5.176;2024-02-15T00:38:43;101616.78;;;10.85;95.70
85683;BME280;76253;52.232;5.176;2024-02-15T00:41:08;101618.44;;;10.86;95.37
85683;BME280;76253;52.232;5.176;2024-02-15T00:43:37;101616.78;;;10.85;95.24
85683;BME280;76253;52.232;5.176;2024-02-15T00:46:03;101611.63;;;10.83;95.40
85683;BME280;76253;52.232;5.176;2024-02-15T00:48:28;101619.28;;;10.86;95.35
85683;BME280;76253;52.232;5.176;2024-02-15T00:50:55;101601.34;;;10.80;95.62
85683;BME280;76253;52.232;5.176;2024-02-15T00:53:22;101613.06;;;10.87;95.46
85683;BME280;76253;52.232;5.176;2024-02-15T00:55:51;101614.00;;;10.86;95.53
85683;BME280;76253;52.232;5.176;2024-02-15T00:58:16;101606.84;;;10.88;95.57
85683;BME280;76253;52.232;5.176;2024-02-15T01:00:43;101616.31;;;10.91;95.45
85683;BME280;76253;52.232;5.176;2024-02-15T01:03:08;101611.16;;;10.89;95.63
85683;BME280;76253;52.232;5.176;2024-02-15T01:05:34;101592.09;;;10.86;95.48
85683;BME280;76253;52.232;5.176;2024-02-15T01:08:00;101599.06;;;10.87;95.66
85683;BME280;76253;52.232;5.176;2024-02-15T01:10:25;101597.84;;;10.91;95.69
85683;BME280;76253;52.232;5.176;2024-02-15T01:12:53;101600.50;;;10.91;95.49
85683;BME280;76253;52.232;5.176;2024-02-15T01:15:20;101596.91;;;10.92;95.39
85683;BME280;76253;52.232;5.176;2024-02-15T01:17:45;101587.31;;;10.91;95.40
85683;BME280;76253;52.232;5.176;2024-02-15T01:20:14;101601.97;;;10.95;95.49
85683;BME280;76253;52.232;5.176;2024-02-15T01:22:40;101583.03;;;10.90;95.57
85683;BME280;76253;52.232;5.176;2024-02-15T01:25:06;101596.81;;;10.93;95.78
85683;BME280;76253;52.232;5.176;2024-02-15T01:27:32;101597.75;;;10.92;95.75
85683;BME280;76253;52.232;5.176;2024-02-15T01:29:57;101595.00;;;10.94;95.64
85683;BME280;76253;52.232;5.176;2024-02-15T01:32:27;101595.00;;;10.94;95.47
85683;BME280;76253;52.232;5.176;2024-02-15T01:34:52;101578.31;;;10.82;95.74
85683;BME280;76253;52.232;5.176;2024-02-15T01:37:21;101591.78;;;10.90;95.76
85683;BME280;76253;52.232;5.176;2024-02-15T01:39:49;101579.91;;;10.85;95.75
85683;BME280;76253;52.232;5.176;2024-02-15T01:42:15;101594.91;;;10.95;95.75
85683;BME280;76253;52.232;5.176;2024-02-15T01:44:41;101594.06;;;10.95;95.68
85683;BME280;76253;52.232;5.176;2024-02-15T01:47:13;101577.50;;;10.93;95.72
85683;BME280;76253;52.232;5.176;2024-02-15T01:49:39;101589.38;;;10.98;95.60
85683;BME280;76253;52.232;5.176;2024-02-15T01:52:07;101575.97;;;11.01;95.53
85683;BME280;76253;52.232;5.176;2024-02-15T01:54:36;101571.78;;;10.99;95.83
85683;BME280;76253;52.232;5.176;2024-02-15T01:57:04;101551.06;;;10.94;95.32
85683;BME280;76253;52.232;5.176;2024-02-15T01:59:30;101561.94;;;11.01;95.27
85683;BME280;76253;52.232;5.176;2024-02-15T02:01:56;101561.72;;;11.04;95.53
85683;BME280;76253;52.232;5.176;2024-02-15T02:04:21;101565.19;;;11.04;95.22
85683;BME280;76253;52.232;5.176;2024-02-15T02:06:49;101553.34;;;10.99;95.33
85683;BME280;76253;52.232;5.176;2024-02-15T02:09:16;101564.34;;;11.04;95.14
85683;BME280;76253;52.232;5.176;2024-02-15T02:11:45;101564.34;;;11.04;95.39
85683;BME280;76253;52.232;5.176;2024-02-15T02:14:11;101563.53;;;11.03;95.58
85683;BME280;76253;52.232;5.176;2024-02-15T02:16:37;101561.00;;;11.02;95.43
85683;BME280;76253;52.232;5.176;2024-02-15T02:19:04;101563.41;;;11.05;95.50
85683;BME280;76253;52.232;5.176;2024-02-15T02:21:38;101552.88;;;11.05;95.49
85683;BME280;76253;52.232;5.176;2024-02-15T02:24:12;101544.34;;;11.01;95.13
85683;BME280;76253;52.232;5.176;2024-02-15T02:26:38;101555.50;;;11.05;95.61
85683;BME280;76253;52.232;5.176;2024-02-15T02:29:05;101541.84;;;11.00;95.13
85683;BME280;76253;52.232;5.176;2024-02-15T02:31:34;101557.88;;;11.08;95.39
85683;BME280;76253;52.232;5.176;2024-02-15T02:33:59;101536.66;;;10.98;94.93
85683;BME280;76253;52.232;5.176;2024-02-15T02:36:26;101551.78;;;11.07;95.07
85683;BME280;76253;52.232;5.176;2024-02-15T02:38:51;101545.56;;;11.08;95.01
85683;BME280;76253;52.232;5.176;2024-02-15T02:41:17;101546.03;;;11.02;94.94
85683;BME280;76253;52.232;5.176;2024-02-15T02:43:44;101547.59;;;11.05;95.14
85683;BME280;76253;52.232;5.176;2024-02-15T02:46:10;101549.25;;;11.06;95.03
85683;BME280;76253;52.232;5.176;2024-02-15T02:48:36;101531.41;;;10.98;95.27
85683;BME280;76253;52.232;5.176;2024-02-15T02:51:01;101541.34;;;11.06;94.87
85683;BME280;76253;52.232;5.176;2024-02-15T02:53:27;101533.94;;;11.00;95.25
85683;BME280;76253;52.232;5.176;2024-02-15T02:55:53;101539.53;;;11.06;94.88
85683;BME280;76253;52.232;5.176;2024-02-15T02:58:19;101537.84;;;11.05;95.05
85683;BME280;76253;52.232;5.176;2024-02-15T03:00:44;101539.78;;;11.03;95.05
85683;BME280;76253;52.232;5.176;2024-02-15T03:03:11;101526.97;;;10.99;95.15
85683;BME280;76253;52.232;5.176;2024-02-15T03:05:37;101543.13;;;11.05;95.35
85683;BME280;76253;52.232;5.176;2024-02-15T03:08:05;101531.88;;;11.03;95.04
85683;BME280;76253;52.232;5.176;2024-02-15T03:10:30;101531.78;;;11.05;95.22
85683;BME280;76253;52.232;5.176;2024-02-15T03:12:56;101522.75;;;10.96;95.34
85683;BME280;76253;52.232;5.176;2024-02-15T03:15:23;101501.91;;;10.82;95.39
85683;BME280;76253;52.232;5.176;2024-02-15T03:17:48;101535.38;;;11.04;94.88
85683;BME280;76253;52.232;5.176;2024-02-15T03:20:13;101542.44;;;11.03;94.94
85683;BME280;76253;52.232;5.176;2024-02-15T03:22:58;101531.50;;;10.97;95.24
85683;BME280;76253;52.232;5.176;2024-02-15T03:25:25;101541.47;;;11.04;95.03
85683;BME280;76253;52.232;5.176;2024-02-15T03:27:57;101535.84;;;10.98;95.04
85683;BME280;76253;52.232;5.176;2024-02-15T03:30:26;101546.03;;;11.02;95.13
85683;BME280;76253;52.232;5.176;2024-02-15T03:32:55;101544.22;;;11.03;95.20
85683;BME280;76253;52.232;5.176;2024-02-15T03:35:22;101543.13;;;11.05;95.05
85683;BME280;76253;52.232;5.176;2024-02-15T03:37:51;101543.28;;;11.04;95.29
85683;BME280;76253;52.232;5.176;2024-02-15T03:40:17;101535.09;;;10.96;95.42
85683;BME280;76253;52.232;5.176;2024-02-15T03:42:43;101532.25;;;10.99;95.25
85683;BME280;76253;52.232;5.176;2024-02-15T03:45:08;101541.47;;;11.04;95.28
85683;BME280;76253;52.232;5.176;2024-02-15T03:47:35;101524.34;;;10.99;95.39
85683;BME280;76253;52.232;5.176;2024-02-15T03:50:04;101538.84;;;11.04;95.07
85683;BME280;76253;52.232;5.176;2024-02-15T03:52:30;101535.22;;;11.05;95.24
85683;BME280;76253;52.232;5.176;2024-02-15T03:54:58;101526.63;;;11.03;95.31
85683;BME280;76253;52.232;5.176;2024-02-15T03:57:25;101515.69;;;10.97;95.38
85683;BME280;76253;52.232;5.176;2024-02-15T03:59:50;101535.38;;;11.04;95.16
85683;BME280;76253;52.232;5.176;2024-02-15T04:02:18;101505.88;;;10.88;95.15
85683;BME280;76253;52.232;5.176;2024-02-15T04:04:44;101526.72;;;11.02;94.82
85683;BME280;76253;52.232;5.176;2024-02-15T04:07:15;101524.34;;;10.99;95.42
85683;BME280;76253;52.232;5.176;2024-02-15T04:09:41;101513.19;;;10.95;95.34
85683;BME280;76253;52.232;5.176;2024-02-15T04:12:07;101508.75;;;10.96;95.00
85683;BME280;76253;52.232;5.176;2024-02-15T04:14:33;101521.94;;;11.07;94.85
85683;BME280;76253;52.232;5.176;2024-02-15T04:17:00;101531.41;;;11.09;94.91
85683;BME280;76253;52.232;5.176;2024-02-15T04:19:27;101527.22;;;11.07;95.10
85683;BME280;76253;52.232;5.176;2024-02-15T04:21:52;101531.53;;;11.08;94.91
85683;BME280;76253;52.232;5.176;2024-02-15T04:24:17;101520.50;;;11.03;95.21
85683;BME280;76253;52.232;5.176;2024-02-15T04:26:43;101520.16;;;11.07;95.37
85683;BME280;76253;52.232;5.176;2024-02-15T04:29:08;101522.03;;;11.05;95.03
85683;BME280;76253;52.232;5.176;2024-02-15T04:31:37;101514.88;;;11.07;95.06
85683;BME280;76253;52.232;5.176;2024-02-15T04:34:04;101503.00;;;11.02;95.01
85683;BME280;76253;52.232;5.176;2024-02-15T04:36:30;101503.00;;;11.02;94.93
85683;BME280;76253;52.232;5.176;2024-02-15T04:38:59;101512.22;;;11.07;95.18
85683;BME280;76253;52.232;5.176;2024-02-15T04:41:25;101506.97;;;11.07;95.01
85683;BME280;76253;52.232;5.176;2024-02-15T04:43:51;101460.69;;;10.81;94.95
85683;BME280;76253;52.232;5.176;2024-02-15T04:46:18;101493.91;;;11.06;95.09
85683;BME280;76253;52.232;5.176;2024-02-15T04:48:49;101500.00;;;11.06;95.24
85683;BME280;76253;52.232;5.176;2024-02-15T04:51:15;101503.38;;;11.08;95.28
85683;BME280;76253;52.232;5.176;2024-02-15T04:53:41;101498.22;;;11.07;95.42
85683;BME280;76253;52.232;5.176;2024-02-15T04:56:06;101496.53;;;11.06;95.50
85683;BME280;76253;52.232;5.176;2024-02-15T04:58:41;101497.63;;;11.03;95.26
85683;BME280;76253;52.232;5.176;2024-02-15T05:01:14;101459.53;;;10.85;95.58
85683;BME280;76253;52.232;5.176;2024-02-15T05:03:43;101506.97;;;11.07;95.33
85683;BME280;76253;52.232;5.176;2024-02-15T05:06:09;101510.44;;;11.08;95.58
85683;BME280;76253;52.232;5.176;2024-02-15T05:08:36;101483.22;;;10.96;95.25
85683;BME280;76253;52.232;5.176;2024-02-15T05:11:11;101495.09;;;11.02;95.31
85683;BME280;76253;52.232;5.176;2024-02-15T05:13:45;101503.38;;;11.08;95.69
85683;BME280;76253;52.232;5.176;2024-02-15T05:16:11;101499.31;;;11.04;95.25
85683;BME280;76253;52.232;5.176;2024-02-15T05:18:36;101495.00;;;11.03;95.45
85683;BME280;76253;52.232;5.176;2024-02-15T05:21:03;101484.91;;;10.97;95.23
85683;BME280;76253;52.232;5.176;2024-02-15T05:23:29;101493.31;;;11.02;95.21
85683;BME280;76253;52.232;5.176;2024-02-15T05:25:55;101468.41;;;10.95;95.66
85683;BME280;76253;52.232;5.176;2024-02-15T05:28:21;101475.59;;;11.04;95.53
85683;BME280;76253;52.232;5.176;2024-02-15T05:31:08;101463.25;;;11.05;95.54
85683;BME280;76253;52.232;5.176;2024-02-15T05:33:33;101450.19;;;11.03;95.61
85683;BME280;76253;52.232;5.176;2024-02-15T05:35:59;101436.16;;;11.03;95.78
85683;BME280;76253;52.232;5.176;2024-02-15T05:38:24;101423.22;;;11.00;95.71
85683;BME280;76253;52.232;5.176;2024-02-15T05:40:49;101431.00;;;11.01;95.41
85683;BME280;76253;52.232;5.176;2024-02-15T05:43:15;101423.34;;;10.98;95.70
85683;BME280;76253;52.232;5.176;2024-02-15T05:45:42;101433.03;;;10.98;95.89
85683;BME280;76253;52.232;5.176;2024-02-15T05:48:07;101435.31;;;11.02;95.50
85683;BME280;76253;52.232;5.176;2024-02-15T05:50:33;101426.69;;;11.00;95.82
85683;BME280;76253;52.232;5.176;2024-02-15T05:52:59;101443.97;;;11.04;95.94
85683;BME280;76253;52.232;5.176;2024-02-15T05:55:26;101440.59;;;11.02;95.85
85683;BME280;76253;52.232;5.176;2024-02-15T05:57:53;101443.81;;;11.06;95.49
85683;BME280;76253;52.232;5.176;2024-02-15T06:00:19;101429.56;;;10.97;95.58
85683;BME280;76253;52.232;5.176;2024-02-15T06:02:44;101421.78;;;10.96;95.72
85683;BME280;76253;52.232;5.176;2024-02-15T06:05:10;101441.91;;;11.08;95.53
85683;BME280;76253;52.232;5.176;2024-02-15T06:07:35;101425.13;;;10.98;95.99
85683;BME280;76253;52.232;5.176;2024-02-15T06:10:01;101438.06;;;11.01;95.97
85683;BME280;76253;52.232;5.176;2024-02-15T06:12:29;101440.34;;;11.05;95.95
85683;BME280;76253;52.232;5.176;2024-02-15T06:14:54;101451.59;;;11.07;95.76
85683;BME280;76253;52.232;5.176;2024-02-15T06:17:20;101450.75;;;11.07;96.07
85683;BME280;76253;52.232;5.176;2024-02-15T06:19:45;101457.72;;;11.08;96.11
85683;BME280;76253;52.232;5.176;2024-02-15T06:22:11;101440.09;;;10.97;96.06
85683;BME280;76253;52.232;5.176;2024-02-15T06:24:37;101443.34;;;11.01;95.98
85683;BME280;76253;52.232;5.176;2024-02-15T06:27:03;101447.91;;;11.10;95.63
85683;BME280;76253;52.232;5.176;2024-02-15T06:29:29;101440.09;;;11.08;96.17
85683;BME280;76253;52.232;5.176;2024-02-15T06:32:12;101433.88;;;11.09;95.87
85683;BME280;76253;52.232;5.176;2024-02-15T06:34:56;101439.28;;;11.08;96.19
85683;BME280;76253;52.232;5.176;2024-02-15T06:37:40;101460.00;;;11.12;96.11
85683;BME280;76253;52.232;5.176;2024-02-15T06:40:24;101435.91;;;11.06;96.11
85683;BME280;76253;52.232;5.176;2024-02-15T06:42:50;101410.88;;;11.00;95.88
85683;BME280;76253;52.232;5.176;2024-02-15T06:45:16;101416.13;;;11.11;96.13
85683;BME280;76253;52.232;5.176;2024-02-15T06:47:42;101403.09;;;10.99;96.13
85683;BME280;76253;52.232;5.176;2024-02-15T06:50:13;101436.16;;;11.14;96.19
85683;BME280;76253;52.232;5.176;2024-02-15T06:52:42;101445.84;;;11.13;96.33
85683;BME280;76253;52.232;5.176;2024-02-15T06:55:09;101429.47;;;11.10;96.29
85683;BME280;76253;52.232;5.176;2024-02-15T06:57:38;101438.91;;;11.12;95.77
85683;BME280;76253;52.232;5.176;2024-02-15T07:00:06;101445.97;;;11.12;95.95
85683;BME280;76253;52.232;5.176;2024-02-15T07:02:35;101453.88;;;11.12;96.29
85683;BME280;76253;52.232;5.176;2024-02-15T07:05:00;101451.25;;;11.12;96.23
85683;BME280;76253;52.232;5.176;2024-02-15T07:07:26;101457.47;;;11.11;96.26
85683;BME280;76253;52.232;5.176;2024-02-15T07:09:51;101443.22;;;11.02;95.80
85683;BME280;76253;52.232;5.176;2024-02-15T07:12:16;101447.19;;;11.08;95.90
85683;BME280;76253;52.232;5.176;2024-02-15T07:14:42;101445.38;;;11.08;96.14
85683;BME280;76253;52.232;5.176;2024-02-15T07:17:07;101443.97;;;11.04;96.15
85683;BME280;76253;52.232;5.176;2024-02-15T07:19:33;101457.84;;;11.06;96.26
85683;BME280;76253;52.232;5.176;2024-02-15T07:22:02;101449.81;;;10.97;95.82
85683;BME280;76253;52.232;5.176;2024-02-15T07:24:27;101479.88;;;11.05;95.99
85683;BME280;76253;52.232;5.176;2024-02-15T07:26:53;101472.00;;;10.94;96.20
85683;BME280;76253;52.232;5.176;2024-02-15T07:29:21;101484.34;;;11.05;96.11
85683;BME280;76253;52.232;5.176;2024-02-15T07:31:49;101483.59;;;11.03;96.04
85683;BME280;76253;52.232;5.176;2024-02-15T07:34:14;101475.81;;;11.01;96.04
85683;BME280;76253;52.232;5.176;2024-02-15T07:36:39;101470.69;;;11.00;96.03
85683;BME280;76253;52.232;5.176;2024-02-15T07:39:07;101467.31;;;10.98;96.22
85683;BME280;76253;52.232;5.176;2024-02-15T07:41:37;101468.03;;;11.00;96.18
85683;BME280;76253;52.232;5.176;2024-02-15T07:44:04;101473.53;;;10.97;96.31
85683;BME280;76253;52.232;5.176;2024-02-15T07:46:29;101456.88;;;10.96;96.54
85683;BME280;76253;52.232;5.176;2024-02-15T07:48:56;101449.81;;;10.97;96.21
85683;BME280;76253;52.232;5.176;2024-02-15T07:51:22;101420.22;;;10.82;96.19
85683;BME280;76253;52.232;5.176;2024-02-15T07:53:48;101426.47;;;10.92;96.63
85683;BME280;76253;52.232;5.176;2024-02-15T07:56:15;101453.66;;;10.93;96.52
85683;BME280;76253;52.232;5.176;2024-02-15T07:58:48;101464.78;;;10.96;96.64
85683;BME280;76253;52.232;5.176;2024-02-15T08:01:15;101451.13;;;10.91;96.25
85683;BME280;76253;52.232;5.176;2024-02-15T08:03:42;101460.59;;;10.94;96.46
85683;BME280;76253;52.232;5.176;2024-02-15T08:06:11;101445.25;;;10.88;96.79
85683;BME280;76253;52.232;5.176;2024-02-15T08:08:42;101443.94;;;10.93;96.85
85683;BME280;76253;52.232;5.176;2024-02-15T08:11:11;101445.38;;;10.97;96.23
85683;BME280;76253;52.232;5.176;2024-02-15T08:13:51;101432.94;;;10.88;96.83
85683;BME280;76253;52.232;5.176;2024-02-15T08:16:24;101443.94;;;10.93;96.31
85683;BME280;76253;52.232;5.176;2024-02-15T08:18:51;101445.38;;;10.97;96.67
85683;BME280;76253;52.232;5.176;2024-02-15T08:21:32;101445.38;;;10.97;96.59
85683;BME280;76253;52.232;5.176;2024-02-15T08:24:02;101445.63;;;10.94;96.56
85683;BME280;76253;52.232;5.176;2024-02-15T08:26:36;101444.44;;;10.98;96.71
85683;BME280;76253;52.232;5.176;2024-02-15T08:29:05;101428.03;;;10.95;96.76
85683;BME280;76253;52.232;5.176;2024-02-15T08:31:31;101439.16;;;10.98;96.75
85683;BME280;76253;52.232;5.176;2024-02-15T08:33:57;101414.84;;;10.95;96.66
85683;BME280;76253;52.232;5.176;2024-02-15T08:36:23;101400.47;;;10.88;96.42
85683;BME280;76253;52.232;5.176;2024-02-15T08:38:50;101401.91;;;10.92;96.85
85683;BME280;76253;52.232;5.176;2024-02-15T08:41:16;101420.94;;;11.06;96.65
85683;BME280;76253;52.232;5.176;2024-02-15T08:43:46;101406.78;;;11.07;97.07
85683;BME280;76253;52.232;5.176;2024-02-15T08:46:13;101377.13;;;10.94;96.88
85683;BME280;76253;52.232;5.176;2024-02-15T08:48:39;101403.22;;;11.08;97.05
85683;BME280;76253;52.232;5.176;2024-02-15T08:51:06;101401.03;;;11.13;96.67
85683;BME280;76253;52.232;5.176;2024-02-15T08:53:34;101417.56;;;11.15;96.95
85683;BME280;76253;52.232;5.176;2024-02-15T08:55:59;101405.72;;;11.10;97.17
85683;BME280;76253;52.232;5.176;2024-02-15T08:58:25;101389.56;;;11.03;96.71
85683;BME280;76253;52.232;5.176;2024-02-15T09:00:51;101404.63;;;11.12;97.11
85683;BME280;76253;52.232;5.176;2024-02-15T09:03:19;101391.09;;;11.06;96.77
85683;BME280;76253;52.232;5.176;2024-02-15T09:05:44;101378.91;;;11.05;96.89
85683;BME280;76253;52.232;5.176;2024-02-15T09:08:10;101407.16;;;11.14;97.06
85683;BME280;76253;52.232;5.176;2024-02-15T09:10:35;101412.91;;;11.19;96.93
85683;BME280;76253;52.232;5.176;2024-02-15T09:13:01;101404.75;;;11.11;96.92
85683;BME280;76253;52.232;5.176;2024-02-15T09:15:27;101407.75;;;11.17;97.21
85683;BME280;76253;52.232;5.176;2024-02-15T09:17:55;101391.94;;;11.06;97.06
85683;BME280;76253;52.232;5.176;2024-02-15T09:20:23;101418.03;;;11.20;97.06
85683;BME280;76253;52.232;5.176;2024-02-15T09:22:54;101416.38;;;11.19;96.80
85683;BME280;76253;52.232;5.176;2024-02-15T09:25:20;101424.03;;;11.22;96.95
85683;BME280;76253;52.232;5.176;2024-02-15T09:27:48;101431.00;;;11.23;97.29
85683;BME280;76253;52.232;5.176;2024-02-15T09:30:15;101414.56;;;11.20;97.25
85683;BME280;76253;52.232;5.176;2024-02-15T09:32:41;101412.75;;;11.20;96.84
85683;BME280;76253;52.232;5.176;2024-02-15T09:35:08;101410.38;;;11.29;97.02
85683;BME280;76253;52.232;5.176;2024-02-15T09:37:38;101419.22;;;11.27;97.43
85683;BME280;76253;52.232;5.176;2024-02-15T09:40:08;101417.06;;;11.21;96.86
85683;BME280;76253;52.232;5.176;2024-02-15T09:42:35;101420.44;;;11.23;96.99
85683;BME280;76253;52.232;5.176;2024-02-15T09:45:01;101428.81;;;11.29;97.28
85683;BME280;76253;52.232;5.176;2024-02-15T09:47:39;101430.50;;;11.30;97.08
85683;BME280;76253;52.232;5.176;2024-02-15T09:50:08;101422.94;;;11.25;97.13
85683;BME280;76253;52.232;5.176;2024-02-15T09:52:38;101429.53;;;11.31;97.37
85683;BME280;76253;52.232;5.176;2024-02-15T09:55:04;101426.78;;;11.32;96.90
85683;BME280;76253;52.232;5.176;2024-02-15T09:57:30;101415.28;;;11.33;97.28
85683;BME280;76253;52.232;5.176;2024-02-15T09:59:58;101405.22;;;11.27;96.96
85683;BME280;76253;52.232;5.176;2024-02-15T10:02:29;101425.06;;;11.42;97.19
85683;BME280;76253;52.232;5.176;2024-02-15T10:04:56;101385.44;;;11.21;97.24
85683;BME280;76253;52.232;5.176;2024-02-15T10:07:26;101418.56;;;11.46;96.89
85683;BME280;76253;52.232;5.176;2024-02-15T10:09:56;101413.69;;;11.42;97.06
85683;BME280;76253;52.232;5.176;2024-02-15T10:12:21;101426.13;;;11.51;97.05
85683;BME280;76253;52.232;5.176;2024-02-15T10:14:50;101426.38;;;11.48;97.43
85683;BME280;76253;52.232;5.176;2024-02-15T10:17:20;101425.41;;;11.49;97.32
85683;BME280;76253;52.232;5.176;2024-02-15T10:20:03;101423.63;;;11.49;96.96
85683;BME280;76253;52.232;5.176;2024-02-15T10:22:28;101431.41;;;11.51;97.32
85683;BME280;76253;52.232;5.176;2024-02-15T10:25:14;101415.09;;;11.46;97.21
85683;BME280;76253;52.232;5.176;2024-02-15T10:27:40;101431.75;;;11.57;96.87
85683;BME280;76253;52.232;5.176;2024-02-15T10:30:16;101409.34;;;11.52;97.12
85683;BME280;76253;52.232;5.176;2024-02-15T10:32:43;101426.56;;;11.67;97.37
85683;BME280;76253;52.232;5.176;2024-02-15T10:35:08;101420.06;;;11.71;97.25
85683;BME280;76253;52.232;5.176;2024-02-15T10:37:34;101374.00;;;11.43;96.87
85683;BME280;76253;52.232;5.176;2024-02-15T10:40:06;101410.00;;;11.65;97.14
85683;BME280;76253;52.232;5.176;2024-02-15T10:42:36;101420.28;;;11.79;97.33
85683;BME280;76253;52.232;5.176;2024-02-15T10:45:05;101393.78;;;11.69;96.98
85683;BME280;76253;52.232;5.176;2024-02-15T10:47:37;101396.81;;;11.76;96.92
85683;BME280;76253;52.232;5.176;2024-02-15T10:50:04;101398.94;;;11.82;97.13
85683;BME280;76253;52.232;5.176;2024-02-15T10:52:31;101407.44;;;11.86;96.72
85683;BME280;76253;52.232;5.176;2024-02-15T10:55:04;101417.75;;;11.89;97.38
85683;BME280;76253;52.232;5.176;2024-02-15T10:57:31;101416.31;;;11.85;97.24
85683;BME280;76253;52.232;5.176;2024-02-15T10:59:59;101419.66;;;11.87;97.11
85683;BME280;76253;52.232;5.176;2024-02-15T11:02:43;101400.41;;;11.75;97.06
85683;BME280;76253;52.232;5.176;2024-02-15T11:05:11;101394.44;;;11.73;97.04
85683;BME280;76253;52.232;5.176;2024-02-15T11:07:39;101406.84;;;11.82;96.75
85683;BME280;76253;52.232;5.176;2024-02-15T11:10:06;101419.41;;;11.90;96.89
85683;BME280;76253;52.232;5.176;2024-02-15T11:12:34;101410.53;;;11.91;97.33
85683;BME280;76253;52.232;5.176;2024-02-15T11:14:59;101410.16;;;11.95;96.72
85683;BME280;76253;52.232;5.176;2024-02-15T11:20:03;101410.59;;;12.00;96.59
85683;BME280;76253;52.232;5.176;2024-02-15T11:22:34;101407.72;;;12.03;96.88
85683;BME280;76253;52.232;5.176;2024-02-15T11:25:03;101396.06;;;12.06;96.66
85683;BME280;76253;52.232;5.176;2024-02-15T11:27:38;101386.72;;;12.02;96.99
85683;BME280;76253;52.232;5.176;2024-02-15T11:30:06;101397.81;;;12.17;96.79
85683;BME280;76253;52.232;5.176;2024-02-15T11:35:14;101387.94;;;12.19;96.57
85683;BME280;76253;52.232;5.176;2024-02-15T11:40:17;101380.09;;;12.28;96.96
85683;BME280;76253;52.232;5.176;2024-02-15T11:42:43;101360.56;;;12.20;96.49
85683;BME280;76253;52.232;5.176;2024-02-15T11:45:09;101362.03;;;12.33;96.83
85683;BME280;76253;52.232;5.176;2024-02-15T11:47:40;101367.09;;;12.46;96.79
85683;BME280;76253;52.232;5.176;2024-02-15T11:50:09;101371.28;;;12.48;96.39
85683;BME280;76253;52.232;5.176;2024-02-15T11:53:01;101372.31;;;12.57;96.60
85683;BME280;76253;52.232;5.176;2024-02-15T11:55:31;101368.16;;;12.64;96.52
85683;BME280;76253;52.232;5.176;2024-02-15T11:57:59;101362.63;;;12.67;96.46
85683;BME280;76253;52.232;5.176;2024-02-15T12:00:42;101371.41;;;12.77;96.73
85683;BME280;76253;52.232;5.176;2024-02-15T12:03:27;101368.63;;;12.79;96.75
85683;BME280;76253;52.232;5.176;2024-02-15T12:06:16;101345.94;;;12.76;96.62
85683;BME280;76253;52.232;5.176;2024-02-15T12:09:02;101346.09;;;12.84;96.70
85683;BME280;76253;52.232;5.176;2024-02-15T12:11:46;101317.16;;;12.83;96.58
85683;BME280;76253;52.232;5.176;2024-02-15T12:14:30;101342.53;;;13.05;96.41
85683;BME280;76253;52.232;5.176;2024-02-15T12:17:14;101330.06;;;13.16;96.40
85683;BME280;76253;52.232;5.176;2024-02-15T12:20:03;101310.97;;;13.13;96.32
85683;BME280;76253;52.232;5.176;2024-02-15T12:22:39;101332.44;;;13.38;96.29
85683;BME280;76253;52.232;5.176;2024-02-15T12:25:14;101329.53;;;13.42;96.25
85683;BME280;76253;52.232;5.176;2024-02-15T12:27:46;101326.59;;;13.54;96.44
85683;BME280;76253;52.232;5.176;2024-02-15T12:30:15;101328.69;;;13.70;96.17
85683;BME280;76253;52.232;5.176;2024-02-15T12:32:40;101301.38;;;13.69;96.10
85683;BME280;76253;52.232;5.176;2024-02-15T12:35:12;101319.88;;;13.89;96.29
85683;BME280;76253;52.232;5.176;2024-02-15T12:37:48;101316.38;;;13.88;96.21
85683;BME280;76253;52.232;5.176;2024-02-15T12:40:19;101321.00;;;13.96;95.94
85683;BME280;76253;52.232;5.176;2024-02-15T12:42:47;101305.88;;;14.15;96.05
85683;BME280;76253;52.232;5.176;2024-02-15T12:45:25;101299.72;;;14.24;95.71
85683;BME280;76253;52.232;5.176;2024-02-15T12:47:56;101296.63;;;14.29;95.74
85683;BME280;76253;52.232;5.176;2024-02-15T12:50:24;101292.69;;;14.33;95.57
85683;BME280;76253;52.232;5.176;2024-02-15T12:52:53;101287.25;;;14.35;95.33
85683;BME280;76253;52.232;5.176;2024-02-15T12:55:21;101306.34;;;14.48;95.08
85683;BME280;76253;52.232;5.176;2024-02-15T12:57:50;101287.66;;;14.49;95.04
85683;BME280;76253;52.232;5.176;2024-02-15T13:00:24;101300.75;;;14.78;94.77
85683;BME280;76253;52.232;5.176;2024-02-15T13:03:03;101286.19;;;15.00;94.68
85683;BME280;76253;52.232;5.176;2024-02-15T13:05:30;101284.91;;;14.86;94.28